Time;durP1;ratioP1;P1;durP2;ratioP2;P2;SDS_P1;SDS_P2;PMS_P1;PMS_P2;Temp;Humidity;BMP_temperature;BMP_pressure;BME280_temperature;BME280_humidity;BME280_pressure;Samples;Min_cycle;Max_cycle;Signal;HPM_P1;HPM_P2
2023/12/20 00:00:00;;;;;;;0.00;0.00;;;;;;;;;;6192955;23;20031;-86
2023/12/20 00:02:25;;;;;;;0.00;0.00;;;;;;;;;;6217027;23;20000;-86
2023/12/20 00:04:51;;;;;;;0.00;0.00;;;;;;;;;;6244568;22;20019;-86
2023/12/20 00:07:17;;;;;;;0.00;0.00;;;;;;;;;;6192701;23;20418;-86
2023/12/20 00:09:42;;;;;;;0.00;0.00;;;;;;;;;;6242157;23;20012;-86
2023/12/20 00:12:08;;;;;;;0.00;0.00;;;;;;;;;;6192198;23;20411;-86
2023/12/20 00:14:34;;;;;;;0.00;0.00;;;;;;;;;;6242415;22;20015;-86
2023/12/20 00:16:59;;;;;;;0.00;0.00;;;;;;;;;;6241946;23;20071;-86
2023/12/20 00:19:25;;;;;;;0.00;0.00;;;;;;;;;;6192380;23;20008;-86
2023/12/20 00:21:53;;;;;;;0.00;0.00;;;;;;;;;;6249019;23;20004;-86
2023/12/20 00:24:19;;;;;;;0.00;0.00;;;;;;;;;;6255663;22;20015;-85
2023/12/20 00:26:44;;;;;;;0.00;0.00;;;;;;;;;;6253906;23;19996;-87
2023/12/20 00:29:10;;;;;;;0.00;0.00;;;;;;;;;;6254492;23;20483;-87
2023/12/20 00:31:35;;;;;;;0.00;0.00;;;;;;;;;;6216949;23;20004;-87
2023/12/20 00:34:01;;;;;;;0.00;0.00;;;;;;;;;;6217333;23;20023;-86
2023/12/20 00:36:27;;;;;;;0.00;0.00;;;;;;;;;;6190589;23;20008;-86
2023/12/20 00:38:52;;;;;;;0.00;0.00;;;;;;;;;;6243179;22;20012;-86
2023/12/20 00:41:18;;;;;;;0.00;0.00;;;;;;;;;;6242192;23;20070;-86
2023/12/20 00:43:44;;;;;;;0.00;0.00;;;;;;;;;;6192513;23;20038;-86
2023/12/20 00:46:09;;;;;;;0.00;0.00;;;;;;;;;;6217214;23;20000;-86
2023/12/20 00:48:35;;;;;;;0.00;0.00;;;;;;;;;;6217237;23;20338;-86
2023/12/20 00:51:00;;;;;;;0.00;0.00;;;;;;;;;;6242480;23;20004;-86
2023/12/20 00:53:26;;;;;;;0.00;0.00;;;;;;;;;;6242164;23;20482;-86
2023/12/20 00:55:51;;;;;;;0.00;0.00;;;;;;;;;;6243256;22;20008;-86
2023/12/20 00:58:17;;;;;;;0.00;0.00;;;;;;;;;;6242587;23;20022;-85
2023/12/20 01:00:43;;;;;;;0.00;0.00;;;;;;;;;;6242237;23;20343;-86
2023/12/20 01:03:09;;;;;;;0.00;0.00;;;;;;;;;;6221181;23;20048;-87
2023/12/20 01:05:34;;;;;;;0.00;0.00;;;;;;;;;;6205164;23;20011;-86
2023/12/20 01:08:04;;;;;;;0.00;0.00;;;;;;;;;;6228232;23;20105;-89
2023/12/20 01:10:29;;;;;;;0.00;0.00;;;;;;;;;;6242858;23;20012;-88
2023/12/20 01:12:55;;;;;;;0.00;0.00;;;;;;;;;;6216546;23;19996;-88
2023/12/20 01:15:20;;;;;;;0.00;0.00;;;;;;;;;;6191258;23;20008;-85
2023/12/20 01:17:46;;;;;;;0.00;0.00;;;;;;;;;;6191943;23;20000;-85
2023/12/20 01:20:11;;;;;;;0.00;0.00;;;;;;;;;;6216475;23;20427;-85
2023/12/20 01:22:37;;;;;;;0.00;0.00;;;;;;;;;;6216634;23;20348;-86
2023/12/20 01:25:03;;;;;;;0.00;0.00;;;;;;;;;;6241743;23;20000;-85
2023/12/20 01:27:29;;;;;;;0.00;0.00;;;;;;;;;;6243180;23;20007;-86
2023/12/20 01:29:54;;;;;;;0.00;0.00;;;;;;;;;;6242726;22;20019;-86
2023/12/20 01:32:20;;;;;;;0.00;0.00;;;;;;;;;;6252632;22;20393;-86
2023/12/20 01:34:45;;;;;;;0.00;0.00;;;;;;;;;;6246869;22;20396;-86
2023/12/20 01:37:11;;;;;;;0.00;0.00;;;;;;;;;;6196948;22;20027;-85
2023/12/20 01:39:36;;;;;;;0.00;0.00;;;;;;;;;;6271664;22;20091;-85
2023/12/20 01:42:02;;;;;;;0.00;0.00;;;;;;;;;;6221644;22;20050;-87
2023/12/20 01:44:27;;;;;;;0.00;0.00;;;;;;;;;;6273224;22;20006;-87
2023/12/20 01:46:53;;;;;;;0.00;0.00;;;;;;;;;;6222031;22;20008;-86
2023/12/20 01:49:19;;;;;;;0.00;0.00;;;;;;;;;;6246452;22;20007;-87
2023/12/20 01:51:44;;;;;;;0.00;0.00;;;;;;;;;;6196734;22;20062;-86
2023/12/20 01:54:10;;;;;;;0.00;0.00;;;;;;;;;;6246549;22;20415;-87
2023/12/20 01:56:35;;;;;;;0.00;0.00;;;;;;;;;;6221942;22;20429;-86
2023/12/20 01:59:01;;;;;;;0.00;0.00;;;;;;;;;;6221019;22;19999;-86
2023/12/20 02:01:28;;;;;;;0.00;0.00;;;;;;;;;;6221291;22;20057;-87
2023/12/20 02:03:53;;;;;;;0.00;0.00;;;;;;;;;;6223024;22;20082;-86
2023/12/20 02:06:19;;;;;;;0.00;0.00;;;;;;;;;;6223504;22;20086;-85
2023/12/20 02:08:44;;;;;;;0.00;0.00;;;;;;;;;;6198409;22;20010;-86
2023/12/20 02:11:10;;;;;;;0.00;0.00;;;;;;;;;;6223733;22;20315;-86
2023/12/20 02:13:36;;;;;;;0.00;0.00;;;;;;;;;;6247968;22;20053;-86
2023/12/20 02:16:01;;;;;;;0.00;0.00;;;;;;;;;;6223652;22;20034;-86
2023/12/20 02:18:27;;;;;;;0.00;0.00;;;;;;;;;;6198640;22;20065;-85
2023/12/20 02:20:53;;;;;;;0.00;0.00;;;;;;;;;;6223275;22;20505;-85
2023/12/20 02:23:18;;;;;;;0.00;0.00;;;;;;;;;;6223638;22;20029;-86
2023/12/20 02:25:44;;;;;;;0.00;0.00;;;;;;;;;;6223140;22;20320;-85
2023/12/20 02:28:09;;;;;;;0.00;0.00;;;;;;;;;;6248105;22;20459;-85
2023/12/20 02:30:35;;;;;;;0.00;0.00;;;;;;;;;;6198460;22;20035;-86
2023/12/20 02:33:01;;;;;;;0.00;0.00;;;;;;;;;;6223211;22;20019;-86
2023/12/20 02:35:26;;;;;;;0.00;0.00;;;;;;;;;;6223711;22;20011;-86
2023/12/20 02:37:57;;;;;;;0.00;0.00;;;;;;;;;;6223488;22;20007;-85
2023/12/20 02:40:22;;;;;;;0.00;0.00;;;;;;;;;;6223254;22;20062;-86
2023/12/20 02:42:48;;;;;;;0.00;0.00;;;;;;;;;;6221534;22;20007;-86
2023/12/20 02:45:19;;;;;;;0.00;0.00;;;;;;;;;;6275338;22;20094;-86
2023/12/20 02:47:45;;;;;;;0.00;0.00;;;;;;;;;;6223362;22;20008;-86
2023/12/20 02:50:10;;;;;;;0.00;0.00;;;;;;;;;;6248426;22;20000;-87
2023/12/20 02:52:36;;;;;;;0.00;0.00;;;;;;;;;;6223098;22;20027;-86
2023/12/20 02:55:01;;;;;;;0.00;0.00;;;;;;;;;;6275517;22;20382;-87
2023/12/20 02:57:27;;;;;;;0.00;0.00;;;;;;;;;;6223028;22;20011;-86
2023/12/20 02:59:52;;;;;;;0.00;0.00;;;;;;;;;;6275147;22;20011;-85
2023/12/20 03:02:18;;;;;;;0.00;0.00;;;;;;;;;;6223166;22;20030;-86
2023/12/20 03:04:43;;;;;;;0.00;0.00;;;;;;;;;;6275258;22;20010;-86
2023/12/20 03:07:11;;;;;;;0.00;0.00;;;;;;;;;;6223591;22;20011;-86
2023/12/20 03:09:37;;;;;;;0.00;0.00;;;;;;;;;;6198446;22;20012;-86
2023/12/20 03:12:03;;;;;;;0.00;0.00;;;;;;;;;;6247928;22;20442;-85
2023/12/20 03:14:29;;;;;;;0.00;0.00;;;;;;;;;;6248648;22;20391;-86
2023/12/20 03:16:54;;;;;;;0.00;0.00;;;;;;;;;;6222959;22;20003;-86
2023/12/20 03:19:20;;;;;;;0.00;0.00;;;;;;;;;;6223125;22;20053;-86
2023/12/20 03:21:45;;;;;;;0.00;0.00;;;;;;;;;;6222642;22;20323;-85
2023/12/20 03:24:11;;;;;;;0.00;0.00;;;;;;;;;;6274749;22;20324;-85
2023/12/20 03:26:39;;;;;;;0.00;0.00;;;;;;;;;;6248251;22;20007;-86
2023/12/20 03:29:04;;;;;;;0.00;0.00;;;;;;;;;;6274847;22;20370;-86
2023/12/20 03:31:30;;;;;;;0.00;0.00;;;;;;;;;;6222707;22;20006;-86
2023/12/20 03:33:55;;;;;;;0.00;0.00;;;;;;;;;;6246955;22;20087;-86
2023/12/20 03:36:21;;;;;;;0.00;0.00;;;;;;;;;;6222938;22;20081;-88
2023/12/20 03:38:46;;;;;;;0.00;0.00;;;;;;;;;;6222637;22;20004;-86
2023/12/20 03:41:13;;;;;;;0.00;0.00;;;;;;;;;;6222483;22;20003;-86
2023/12/20 03:43:38;;;;;;;0.00;0.00;;;;;;;;;;6245992;22;20094;-86
2023/12/20 03:46:07;;;;;;;0.00;0.00;;;;;;;;;;6222095;22;20283;-86
2023/12/20 03:48:32;;;;;;;0.00;0.00;;;;;;;;;;6222347;22;20022;-85
2023/12/20 03:50:58;;;;;;;0.00;0.00;;;;;;;;;;6247836;22;20023;-86
2023/12/20 03:53:23;;;;;;;0.00;0.00;;;;;;;;;;6222261;22;20033;-87
2023/12/20 03:55:49;;;;;;;0.00;0.00;;;;;;;;;;6196868;22;20046;-85
2023/12/20 03:58:23;;;;;;;0.00;0.00;;;;;;;;;;6222188;22;20114;-86
2023/12/20 04:00:49;;;;;;;0.00;0.00;;;;;;;;;;6226382;22;20319;-87
2023/12/20 04:03:14;;;;;;;0.00;0.00;;;;;;;;;;6248057;22;20010;-87
2023/12/20 04:05:40;;;;;;;0.00;0.00;;;;;;;;;;6247876;22;20011;-87
2023/12/20 04:08:07;;;;;;;0.00;0.00;;;;;;;;;;6247999;22;20415;-86
2023/12/20 04:10:32;;;;;;;0.00;0.00;;;;;;;;;;6247696;22;20030;-86
2023/12/20 04:12:58;;;;;;;0.00;0.00;;;;;;;;;;6247919;22;20004;-86
2023/12/20 04:15:23;;;;;;;0.00;0.00;;;;;;;;;;6248140;22;20308;-86
2023/12/20 04:17:49;;;;;;;0.00;0.00;;;;;;;;;;6247493;22;20496;-86
2023/12/20 04:20:14;;;;;;;0.00;0.00;;;;;;;;;;6222175;22;20082;-87
2023/12/20 04:22:42;;;;;;;0.00;0.00;;;;;;;;;;6248430;22;20074;-87
2023/12/20 04:25:08;;;;;;;0.00;0.00;;;;;;;;;;6222708;22;20084;-87
2023/12/20 04:27:33;;;;;;;0.00;0.00;;;;;;;;;;6247431;22;20003;-87
2023/12/20 04:29:59;;;;;;;0.00;0.00;;;;;;;;;;6274268;22;20442;-87
2023/12/20 04:32:25;;;;;;;0.00;0.00;;;;;;;;;;6247766;22;20482;-87
2023/12/20 04:34:50;;;;;;;0.00;0.00;;;;;;;;;;6222676;22;20003;-86
2023/12/20 04:37:16;;;;;;;0.00;0.00;;;;;;;;;;6224259;22;20004;-86
2023/12/20 04:39:42;;;;;;;0.00;0.00;;;;;;;;;;6254223;22;20394;-87
2023/12/20 04:42:08;;;;;;;0.00;0.00;;;;;;;;;;6247423;22;20007;-86
2023/12/20 04:44:33;;;;;;;0.00;0.00;;;;;;;;;;6194948;22;20086;-86
2023/12/20 04:46:59;;;;;;;0.00;0.00;;;;;;;;;;6221457;22;20015;-86
2023/12/20 04:49:28;;;;;;;0.00;0.00;;;;;;;;;;6223939;22;20458;-87
2023/12/20 04:51:53;;;;;;;0.00;0.00;;;;;;;;;;6223620;22;20094;-87
2023/12/20 04:54:19;;;;;;;0.00;0.00;;;;;;;;;;6253228;22;20027;-89
2023/12/20 04:56:45;;;;;;;0.00;0.00;;;;;;;;;;6290449;22;20010;-86
2023/12/20 04:59:10;;;;;;;0.00;0.00;;;;;;;;;;6259144;22;19996;-87
2023/12/20 05:01:36;;;;;;;0.00;0.00;;;;;;;;;;6225495;22;20320;-87
2023/12/20 05:04:01;;;;;;;0.00;0.00;;;;;;;;;;6226166;22;20370;-88
2023/12/20 05:06:27;;;;;;;0.00;0.00;;;;;;;;;;6265219;22;20025;-88
2023/12/20 05:08:52;;;;;;;0.00;0.00;;;;;;;;;;6270805;22;19991;-88
2023/12/20 05:11:18;;;;;;;0.00;0.00;;;;;;;;;;6295120;22;20061;-88
2023/12/20 05:13:43;;;;;;;0.00;0.00;;;;;;;;;;6265568;22;19984;-90
2023/12/20 05:16:09;;;;;;;0.00;0.00;;;;;;;;;;6206607;22;20028;-91
2023/12/20 05:18:35;;;;;;;0.00;0.00;;;;;;;;;;6259798;22;20006;-90
2023/12/20 05:21:00;;;;;;;0.00;0.00;;;;;;;;;;6261423;22;19999;-89
2023/12/20 05:23:27;;;;;;;0.00;0.00;;;;;;;;;;6210893;22;20007;-91
2023/12/20 05:25:52;;;;;;;0.00;0.00;;;;;;;;;;6235384;22;20351;-90
2023/12/20 05:28:18;;;;;;;0.00;0.00;;;;;;;;;;6209897;22;20004;-91
2023/12/20 05:30:43;;;;;;;0.00;0.00;;;;;;;;;;6237015;22;20015;-91
2023/12/20 05:33:10;;;;;;;0.00;0.00;;;;;;;;;;6295615;22;20000;-93
2023/12/20 05:35:35;;;;;;;0.00;0.00;;;;;;;;;;6248877;22;20000;-89
2023/12/20 05:38:01;;;;;;;0.00;0.00;;;;;;;;;;6220810;22;20101;-84
2023/12/20 05:40:26;;;;;;;0.00;0.00;;;;;;;;;;6252995;22;20003;-91
2023/12/20 05:42:52;;;;;;;0.00;0.00;;;;;;;;;;6233220;22;20058;-91
2023/12/20 05:45:17;;;;;;;0.00;0.00;;;;;;;;;;6226788;22;20015;-92
2023/12/20 05:47:43;;;;;;;0.00;0.00;;;;;;;;;;6221153;22;20275;-90
2023/12/20 05:50:09;;;;;;;0.00;0.00;;;;;;;;;;6225924;22;20014;-92
2023/12/20 05:52:53;;;;;;;0.00;0.00;;;;;;;;;;6253275;22;20007;-90
2023/12/20 05:55:36;;;;;;;0.00;0.00;;;;;;;;;;6200661;22;20083;-92
2023/12/20 05:58:14;;;;;;;0.00;0.00;;;;;;;;;;6234183;22;20042;-90
2023/12/20 06:00:52;;;;;;;0.00;0.00;;;;;;;;;;6260445;22;20018;-93
2023/12/20 06:03:28;;;;;;;0.32;0.00;;;;;;;;;;6214837;22;20007;-90
2023/12/20 06:06:06;;;;;;;0.00;0.00;;;;;;;;;;6269123;22;20446;-91
2023/12/20 06:09:02;;;;;;;0.00;0.00;;;;;;;;;;6291978;22;20012;-91
2023/12/20 06:12:05;;;;;;;0.00;0.00;;;;;;;;;;6238988;22;20004;-86
2023/12/20 06:19:50;;;;;;;0.00;0.00;;;;;;;;;;6283581;22;20015;-92
2023/12/20 06:22:16;;;;;;;0.00;0.00;;;;;;;;;;6238478;22;20003;-93
2023/12/20 06:24:42;;;;;;;0.00;0.00;;;;;;;;;;6260440;22;20008;-92
2023/12/20 06:27:08;;;;;;;0.00;0.00;;;;;;;;;;6273008;22;19995;-92
2023/12/20 06:32:09;;;;;;;0.00;0.00;;;;;;;;;;6286304;22;20058;-92
2023/12/20 06:34:38;;;;;;;0.00;0.00;;;;;;;;;;6188068;23;20023;-93
2023/12/20 06:40:00;;;;;;;0.00;0.00;;;;;;;;;;6247971;22;20023;-93
2023/12/20 06:42:26;;;;;;;0.00;0.00;;;;;;;;;;6295216;22;19988;-91
2023/12/20 06:48:25;;;;;;;0.00;0.00;;;;;;;;;;6172093;23;20073;-92
2023/12/20 06:50:53;;;;;;;0.00;0.00;;;;;;;;;;6127229;23;20016;-91
2023/12/20 06:53:20;;;;;;;0.10;0.00;;;;;;;;;;6221954;22;19999;-92
2023/12/20 07:02:31;;;;;;;0.00;0.00;;;;;;;;;;6181709;23;20024;-91
2023/12/20 07:10:10;;;;;;;0.00;0.00;;;;;;;;;;6250206;22;20020;-92
2023/12/20 07:15:17;;;;;;;0.00;0.00;;;;;;;;;;6216789;22;21489;-91
2023/12/20 07:18:13;;;;;;;0.00;0.00;;;;;;;;;;6263902;22;20023;-92
2023/12/20 07:20:58;;;;;;;0.00;0.00;;;;;;;;;;6290426;22;20052;-93
2023/12/20 07:23:25;;;;;;;0.00;0.00;;;;;;;;;;6283428;22;20004;-87
2023/12/20 07:26:00;;;;;;;0.00;0.00;;;;;;;;;;6248033;22;20011;-87
2023/12/20 07:28:26;;;;;;;0.00;0.00;;;;;;;;;;6224665;22;20431;-87
2023/12/20 07:30:51;;;;;;;0.00;0.00;;;;;;;;;;6225874;22;20007;-91
2023/12/20 07:33:17;;;;;;;0.00;0.00;;;;;;;;;;6198578;22;20083;-85
2023/12/20 07:35:46;;;;;;;0.00;0.00;;;;;;;;;;6222868;22;20106;-87
2023/12/20 07:38:14;;;;;;;0.00;0.00;;;;;;;;;;6234706;22;20018;-86
2023/12/20 07:40:44;;;;;;;0.00;0.00;;;;;;;;;;6237878;22;20331;-92
2023/12/20 07:43:13;;;;;;;0.00;0.00;;;;;;;;;;6221102;22;19987;-91
2023/12/20 07:45:45;;;;;;;0.00;0.00;;;;;;;;;;6288055;22;20000;-89
2023/12/20 07:48:10;;;;;;;0.00;0.00;;;;;;;;;;6219435;22;20116;-87
2023/12/20 07:50:36;;;;;;;0.00;0.00;;;;;;;;;;6248193;22;20008;-87
2023/12/20 07:53:27;;;;;;;0.00;0.00;;;;;;;;;;6242256;22;20003;-88
2023/12/20 07:58:31;;;;;;;0.00;0.00;;;;;;;;;;6261784;22;20016;-86
2023/12/20 08:00:57;;;;;;;0.00;0.00;;;;;;;;;;6245403;22;20090;-80
2023/12/20 08:03:26;;;;;;;0.00;0.00;;;;;;;;;;6244015;22;20031;-82
2023/12/20 08:05:59;;;;;;;0.00;0.00;;;;;;;;;;6220636;22;20011;-83
2023/12/20 08:12:14;;;;;;;0.00;0.00;;;;;;;;;;6234979;22;20078;-84
2023/12/20 08:14:43;;;;;;;0.00;0.00;;;;;;;;;;6193895;22;20065;-80
2023/12/20 08:17:08;;;;;;;0.00;0.00;;;;;;;;;;6247403;22;20060;-84
2023/12/20 08:19:34;;;;;;;0.00;0.00;;;;;;;;;;6244807;22;20041;-81
2023/12/20 08:21:59;;;;;;;0.00;0.00;;;;;;;;;;6270731;22;20011;-81
2023/12/20 08:24:25;;;;;;;0.00;0.00;;;;;;;;;;6270918;22;20016;-84
2023/12/20 08:27:16;;;;;;;0.00;0.00;;;;;;;;;;6243755;22;20007;-86
2023/12/20 08:29:45;;;;;;;0.00;0.00;;;;;;;;;;6197819;23;20012;-84
2023/12/20 08:32:10;;;;;;;0.00;0.00;;;;;;;;;;6247292;22;20003;-82
2023/12/20 08:34:36;;;;;;;0.00;0.00;;;;;;;;;;6243837;22;20015;-85
2023/12/20 08:37:02;;;;;;;0.00;0.00;;;;;;;;;;6216964;22;20007;-80
2023/12/20 08:39:29;;;;;;;0.00;0.00;;;;;;;;;;6215762;22;20097;-83
2023/12/20 08:41:55;;;;;;;0.00;0.00;;;;;;;;;;6240755;22;20094;-82
2023/12/20 08:44:22;;;;;;;0.00;0.00;;;;;;;;;;6266166;22;20011;-81
2023/12/20 08:46:48;;;;;;;0.00;0.00;;;;;;;;;;6268297;22;20084;-81
2023/12/20 08:49:14;;;;;;;0.00;0.00;;;;;;;;;;6240977;22;20346;-81
2023/12/20 08:51:42;;;;;;;0.00;0.00;;;;;;;;;;6240396;22;20003;-81
2023/12/20 08:54:09;;;;;;;0.00;0.00;;;;;;;;;;6242188;22;20050;-82
2023/12/20 08:56:34;;;;;;;0.00;0.00;;;;;;;;;;6242206;22;20029;-81
2023/12/20 08:59:00;;;;;;;0.00;0.00;;;;;;;;;;6240532;22;20031;-82
2023/12/20 09:01:25;;;;;;;0.00;0.00;;;;;;;;;;6266361;22;20051;-83
2023/12/20 09:03:51;;;;;;;0.00;0.00;;;;;;;;;;6241627;22;20012;-80
2023/12/20 09:06:17;;;;;;;0.00;0.00;;;;;;;;;;6271520;22;20458;-80
2023/12/20 09:08:54;;;;;;;0.00;0.00;;;;;;;;;;6273567;22;20039;-82
2023/12/20 09:11:20;;;;;;;0.00;0.00;;;;;;;;;;6213182;22;20015;-83
2023/12/20 09:13:46;;;;;;;0.00;0.00;;;;;;;;;;6242733;22;20008;-81
2023/12/20 09:16:12;;;;;;;0.00;0.00;;;;;;;;;;6216974;22;20029;-79
2023/12/20 09:18:38;;;;;;;0.00;0.00;;;;;;;;;;6270176;22;20000;-79
2023/12/20 09:21:33;;;;;;;0.00;0.00;;;;;;;;;;6270379;22;20070;-80
2023/12/20 09:23:58;;;;;;;0.00;0.00;;;;;;;;;;6236939;22;20073;-81
2023/12/20 09:26:24;;;;;;;0.00;0.00;;;;;;;;;;6242061;22;20004;-80
2023/12/20 09:28:55;;;;;;;0.00;0.00;;;;;;;;;;6240293;22;20081;-80
2023/12/20 09:31:22;;;;;;;0.00;0.00;;;;;;;;;;6270954;22;20004;-81
2023/12/20 09:33:47;;;;;;;0.00;0.00;;;;;;;;;;6243595;22;20041;-82
2023/12/20 09:36:13;;;;;;;0.00;0.00;;;;;;;;;;6243723;22;20000;-81
2023/12/20 09:38:39;;;;;;;0.00;0.00;;;;;;;;;;6219861;22;20015;-79
2023/12/20 09:41:08;;;;;;;0.00;0.00;;;;;;;;;;6246730;22;20006;-78
2023/12/20 09:43:37;;;;;;;0.00;0.00;;;;;;;;;;6225404;22;20079;-81
2023/12/20 09:46:03;;;;;;;0.00;0.00;;;;;;;;;;6246785;22;20011;-79
2023/12/20 09:48:28;;;;;;;0.00;0.00;;;;;;;;;;6244246;22;20029;-80
2023/12/20 09:50:54;;;;;;;0.00;0.00;;;;;;;;;;6268430;22;20035;-81
2023/12/20 09:53:32;;;;;;;0.00;0.00;;;;;;;;;;6216137;22;20005;-83
2023/12/20 09:56:00;;;;;;;0.00;0.00;;;;;;;;;;6245760;22;20008;-81
2023/12/20 10:01:28;;;;;;;0.00;0.00;;;;;;;;;;6223847;22;20047;-84
2023/12/20 10:03:54;;;;;;;0.00;0.00;;;;;;;;;;6242698;22;20004;-82
2023/12/20 10:06:24;;;;;;;0.00;0.00;;;;;;;;;;6194082;22;20015;-87
2023/12/20 10:08:57;;;;;;;0.00;0.00;;;;;;;;;;6227465;22;20003;-86
2023/12/20 10:11:55;;;;;;;0.00;0.00;;;;;;;;;;6227264;22;20007;-85
2023/12/20 10:14:24;;;;;;;0.00;0.00;;;;;;;;;;6229976;22;20012;-83
2023/12/20 10:16:49;;;;;;;0.00;0.00;;;;;;;;;;6242008;22;20035;-82
2023/12/20 10:19:19;;;;;;;0.00;0.00;;;;;;;;;;6267060;22;20008;-83
2023/12/20 10:21:45;;;;;;;0.00;0.00;;;;;;;;;;6243060;22;20004;-85
2023/12/20 10:27:46;;;;;;;0.00;0.00;;;;;;;;;;6266624;23;20074;-86
2023/12/20 10:30:14;;;;;;;0.00;0.00;;;;;;;;;;6248378;23;20392;-90
2023/12/20 10:33:14;;;;;;;0.00;0.00;;;;;;;;;;6196336;23;20011;-88
2023/12/20 10:35:49;;;;;;;;;;;;;;;;;;;;;
2023/12/20 10:41:32;;;;;;;0.00;0.00;;;;;;;;;;6274167;22;20019;-87
2023/12/20 10:44:36;;;;;;;0.00;0.00;;;;;;;;;;6221935;22;20111;-85
2023/12/20 10:47:02;;;;;;;0.00;0.00;;;;;;;;;;6256016;22;20099;-85
2023/12/20 10:49:28;;;;;;;0.00;0.00;;;;;;;;;;6257828;22;20011;-90
2023/12/20 10:51:57;;;;;;;0.00;0.00;;;;;;;;;;6250487;22;20632;-87
2023/12/20 10:54:22;;;;;;;0.00;0.00;;;;;;;;;;6219298;22;20022;-84
2023/12/20 10:56:48;;;;;;;0.00;0.00;;;;;;;;;;6244105;22;19996;-87
2023/12/20 10:59:14;;;;;;;0.00;0.00;;;;;;;;;;6221926;22;20064;-84
2023/12/20 11:01:41;;;;;;;0.00;0.00;;;;;;;;;;6202329;22;20334;-85
2023/12/20 11:04:08;;;;;;;0.00;0.00;;;;;;;;;;6220749;22;20008;-82
2023/12/20 11:06:49;;;;;;;0.00;0.00;;;;;;;;;;6196028;22;20495;-83
2023/12/20 11:09:17;;;;;;;0.00;0.00;;;;;;;;;;6221069;22;20003;-84
2023/12/20 11:11:52;;;;;;;0.00;0.00;;;;;;;;;;6244319;22;20069;-85
2023/12/20 11:14:31;;;;;;;0.00;0.00;;;;;;;;;;6272982;22;19996;-84
2023/12/20 11:17:07;;;;;;;0.00;0.00;;;;;;;;;;6248228;22;20006;-89
2023/12/20 11:19:35;;;;;;;0.00;0.00;;;;;;;;;;6246044;22;20606;-87
2023/12/20 11:22:01;;;;;;;0.00;0.00;;;;;;;;;;6249355;22;20049;-81
2023/12/20 11:24:27;;;;;;;0.00;0.00;;;;;;;;;;6245474;22;20024;-86
2023/12/20 11:26:56;;;;;;;0.00;0.00;;;;;;;;;;6271499;22;20004;-83
2023/12/20 11:29:37;;;;;;;0.00;0.00;;;;;;;;;;6217825;22;20410;-89
2023/12/20 11:32:03;;;;;;;0.00;0.00;;;;;;;;;;6198166;22;20393;-87
2023/12/20 11:34:33;;;;;;;0.00;0.00;;;;;;;;;;6245300;22;20004;-83
2023/12/20 11:37:03;;;;;;;0.20;0.00;;;;;;;;;;6220179;22;20000;-84
2023/12/20 11:39:29;;;;;;;0.00;0.00;;;;;;;;;;6245179;22;20018;-84
2023/12/20 11:41:57;;;;;;;0.00;0.00;;;;;;;;;;6215658;22;20075;-83
2023/12/20 11:44:22;;;;;;;0.00;0.00;;;;;;;;;;6273324;22;20008;-82
2023/12/20 11:46:48;;;;;;;0.00;0.00;;;;;;;;;;6271231;22;20455;-82
2023/12/20 11:49:13;;;;;;;0.00;0.00;;;;;;;;;;6245541;22;20049;-81
2023/12/20 11:51:43;;;;;;;0.00;0.00;;;;;;;;;;6218020;22;20053;-84
2023/12/20 11:54:09;;;;;;;0.00;0.00;;;;;;;;;;6217018;22;20000;-84
2023/12/20 11:56:36;;;;;;;0.00;0.00;;;;;;;;;;6190378;22;20075;-83
2023/12/20 11:59:01;;;;;;;0.00;0.00;;;;;;;;;;6214492;22;20004;-83
2023/12/20 12:01:27;;;;;;;0.10;0.00;;;;;;;;;;6240398;22;20007;-84
2023/12/20 12:04:10;;;;;;;0.00;0.00;;;;;;;;;;6240682;22;20004;-84
2023/12/20 12:06:36;;;;;;;0.00;0.00;;;;;;;;;;6216470;22;20339;-84
2023/12/20 12:09:03;;;;;;;0.00;0.00;;;;;;;;;;6217296;22;20007;-83
2023/12/20 12:11:29;;;;;;;0.00;0.00;;;;;;;;;;6194568;22;20007;-83
2023/12/20 12:13:54;;;;;;;0.00;0.00;;;;;;;;;;6196476;22;20007;-83
2023/12/20 12:16:20;;;;;;;0.00;0.00;;;;;;;;;;6196464;22;20007;-85
2023/12/20 12:18:56;;;;;;;0.00;0.00;;;;;;;;;;6197210;22;20008;-84
2023/12/20 12:21:24;;;;;;;0.00;0.00;;;;;;;;;;6197723;22;20007;-85
2023/12/20 12:23:50;;;;;;;0.00;0.00;;;;;;;;;;6222000;22;20003;-85
2023/12/20 12:26:15;;;;;;;0.00;0.00;;;;;;;;;;6246948;22;20442;-86
2023/12/20 12:28:42;;;;;;;0.00;0.00;;;;;;;;;;6222484;22;20012;-84
2023/12/20 12:31:07;;;;;;;0.00;0.00;;;;;;;;;;6222086;22;20079;-84
2023/12/20 12:33:33;;;;;;;0.03;0.00;;;;;;;;;;6222500;22;20014;-84
2023/12/20 12:35:59;;;;;;;0.00;0.00;;;;;;;;;;6274496;22;20080;-86
2023/12/20 12:38:25;;;;;;;0.00;0.00;;;;;;;;;;6222717;22;20426;-85
2023/12/20 12:40:53;;;;;;;0.00;0.00;;;;;;;;;;6274218;22;20000;-85
2023/12/20 12:43:18;;;;;;;0.00;0.00;;;;;;;;;;6223130;22;20003;-85
2023/12/20 12:45:44;;;;;;;0.00;0.00;;;;;;;;;;6273817;22;20018;-85
2023/12/20 12:48:10;;;;;;;0.00;0.00;;;;;;;;;;6220533;22;20003;-85
2023/12/20 12:50:35;;;;;;;0.00;0.00;;;;;;;;;;6246739;22;20003;-85
2023/12/20 12:53:02;;;;;;;0.00;0.00;;;;;;;;;;6245576;22;20008;-85
2023/12/20 12:55:28;;;;;;;0.00;0.00;;;;;;;;;;6220803;22;20004;-85
2023/12/20 12:57:54;;;;;;;0.00;0.00;;;;;;;;;;6196943;22;20018;-84
2023/12/20 13:00:19;;;;;;;0.00;0.00;;;;;;;;;;6194176;22;20008;-85
2023/12/20 13:02:45;;;;;;;0.00;0.00;;;;;;;;;;6221850;22;20006;-86
2023/12/20 13:05:10;;;;;;;0.00;0.00;;;;;;;;;;6221760;22;19999;-85
2023/12/20 13:07:37;;;;;;;0.00;0.00;;;;;;;;;;6246728;22;20481;-86
2023/12/20 13:10:03;;;;;;;0.00;0.00;;;;;;;;;;6247174;22;20000;-84
2023/12/20 13:12:29;;;;;;;0.00;0.00;;;;;;;;;;6247766;22;20039;-85
2023/12/20 13:14:55;;;;;;;0.00;0.00;;;;;;;;;;6222223;22;20006;-85
2023/12/20 13:17:20;;;;;;;0.00;0.00;;;;;;;;;;6221786;22;20014;-85
2023/12/20 13:19:46;;;;;;;0.00;0.00;;;;;;;;;;6196535;22;20046;-85
2023/12/20 13:22:11;;;;;;;0.00;0.00;;;;;;;;;;6221749;22;19999;-85
2023/12/20 13:24:37;;;;;;;0.00;0.00;;;;;;;;;;6246768;22;20004;-85
2023/12/20 13:27:03;;;;;;;0.00;0.00;;;;;;;;;;6221756;22;20003;-85
2023/12/20 13:29:29;;;;;;;0.00;0.00;;;;;;;;;;6196440;22;20043;-85
2023/12/20 13:31:54;;;;;;;0.00;0.00;;;;;;;;;;6274013;22;20087;-84
2023/12/20 13:34:21;;;;;;;0.00;0.00;;;;;;;;;;6246473;22;20014;-84
2023/12/20 13:36:47;;;;;;;0.00;0.00;;;;;;;;;;6221846;22;20016;-85
2023/12/20 13:39:13;;;;;;;0.00;0.00;;;;;;;;;;6197190;22;19999;-85
2023/12/20 13:41:39;;;;;;;0.00;0.00;;;;;;;;;;6274021;22;20065;-85
2023/12/20 13:44:05;;;;;;;0.00;0.00;;;;;;;;;;6221380;22;20373;-85
2023/12/20 13:46:31;;;;;;;0.00;0.00;;;;;;;;;;6221684;22;20434;-85
2023/12/20 13:48:56;;;;;;;0.00;0.00;;;;;;;;;;6220114;22;20344;-85
2023/12/20 13:54:22;;;;;;;0.00;0.00;;;;;;;;;;6205613;22;20076;-85
2023/12/20 13:56:47;;;;;;;0.00;0.00;;;;;;;;;;6246855;22;20458;-86
2023/12/20 13:59:14;;;;;;;0.00;0.00;;;;;;;;;;6220278;22;20000;-86
2023/12/20 14:01:40;;;;;;;0.00;0.00;;;;;;;;;;6242964;22;20012;-83
2023/12/20 14:04:06;;;;;;;0.00;0.00;;;;;;;;;;6245498;22;20304;-86
2023/12/20 14:06:34;;;;;;;0.00;0.00;;;;;;;;;;6246060;22;20015;-87
2023/12/20 14:09:00;;;;;;;0.00;0.00;;;;;;;;;;6220719;22;20000;-86
2023/12/20 14:11:26;;;;;;;0.00;0.00;;;;;;;;;;6273132;22;20081;-86
2023/12/20 14:13:51;;;;;;;0.00;0.00;;;;;;;;;;6246402;22;20002;-85
2023/12/20 14:16:19;;;;;;;0.00;0.00;;;;;;;;;;6245925;22;20027;-86
2023/12/20 14:18:45;;;;;;;0.00;0.00;;;;;;;;;;6222178;22;20077;-86
2023/12/20 14:21:28;;;;;;;0.00;0.00;;;;;;;;;;6221121;22;20037;-86
2023/12/20 14:24:10;;;;;;;0.00;0.00;;;;;;;;;;6263893;22;20008;-86
2023/12/20 14:26:37;;;;;;;0.00;0.00;;;;;;;;;;6215708;23;20320;-86
2023/12/20 14:29:07;;;;;;;0.00;0.00;;;;;;;;;;6190765;23;20008;-86
2023/12/20 14:31:33;;;;;;;0.00;0.00;;;;;;;;;;6191073;23;20078;-86
2023/12/20 14:33:59;;;;;;;0.00;0.00;;;;;;;;;;6166769;23;20009;-86
2023/12/20 14:36:24;;;;;;;0.00;0.00;;;;;;;;;;6191368;23;20001;-85
2023/12/20 14:41:52;;;;;;;0.00;0.00;;;;;;;;;;6199628;23;20079;-89
2023/12/20 14:44:21;;;;;;;0.00;0.00;;;;;;;;;;6216752;23;20043;-85
2023/12/20 14:46:47;;;;;;;0.00;0.00;;;;;;;;;;6192581;23;20039;-84
2023/12/20 14:49:14;;;;;;;0.00;0.00;;;;;;;;;;6191885;23;20004;-86
2023/12/20 14:51:43;;;;;;;0.00;0.00;;;;;;;;;;6217128;23;20011;-87
2023/12/20 14:54:29;;;;;;;0.00;0.00;;;;;;;;;;6217385;23;20347;-86
2023/12/20 14:56:57;;;;;;;0.00;0.00;;;;;;;;;;6216608;23;20012;-87
2023/12/20 14:59:23;;;;;;;0.00;0.00;;;;;;;;;;6198790;23;20073;-91
2023/12/20 15:01:49;;;;;;;0.00;0.00;;;;;;;;;;6234639;23;20047;-89
2023/12/20 15:04:28;;;;;;;0.00;0.00;;;;;;;;;;6226758;23;20146;-87
2023/12/20 15:06:57;;;;;;;0.00;0.00;;;;;;;;;;6197020;23;20051;-89
2023/12/20 15:09:22;;;;;;;0.00;0.00;;;;;;;;;;6189775;23;20013;-86
2023/12/20 15:11:50;;;;;;;0.00;0.00;;;;;;;;;;6218776;23;20435;-89
2023/12/20 15:14:19;;;;;;;0.00;0.00;;;;;;;;;;6244222;23;20415;-85
2023/12/20 15:16:46;;;;;;;0.00;0.00;;;;;;;;;;6188031;23;20034;-90
2023/12/20 15:19:11;;;;;;;0.00;0.00;;;;;;;;;;6189146;23;20021;-86
2023/12/20 15:21:41;;;;;;;0.00;0.00;;;;;;;;;;6216934;23;20419;-86
2023/12/20 15:24:14;;;;;;;0.00;0.00;;;;;;;;;;6193404;23;20061;-86
2023/12/20 15:26:43;;;;;;;0.00;0.00;;;;;;;;;;6193748;23;20082;-86
2023/12/20 15:29:17;;;;;;;0.00;0.00;;;;;;;;;;6168793;23;20008;-86
2023/12/20 15:31:44;;;;;;;0.00;0.00;;;;;;;;;;6196174;23;20454;-87
2023/12/20 15:35:00;;;;;;;0.00;0.00;;;;;;;;;;6217641;23;20072;-85
2023/12/20 15:37:27;;;;;;;0.00;0.00;;;;;;;;;;6204791;23;20008;-86